Time;durP1;ratioP1;P1;durP2;ratioP2;P2;SDS_P1;SDS_P2;PMS_P1;PMS_P2;Temp;Humidity;BMP_temperature;BMP_pressure;BME280_temperature;BME280_humidity;BME280_pressure;Samples;Min_cycle;Max_cycle;Signal;HPM_P1;HPM_P2
2022/12/13 00:01:11;;;;;;;53.83;25.73;;;-5.00;99.90;;;;;;5058114;28;20304;-47
2022/12/13 00:03:38;;;;;;;50.33;24.93;;;-5.00;99.90;;;;;;5054603;28;20299;-44
2022/12/13 00:06:05;;;;;;;55.40;25.70;;;-4.90;99.90;;;;;;5064087;28;20209;-47
2022/12/13 00:08:32;;;;;;;51.90;25.67;;;-4.90;99.90;;;;;;5050399;28;20197;-46
2022/12/13 00:11:00;;;;;;;53.20;26.27;;;-4.90;99.90;;;;;;5057427;28;20229;-47
2022/12/13 00:13:28;;;;;;;50.73;27.53;;;-5.00;99.90;;;;;;5045243;28;20202;-61
2022/12/13 00:15:59;;;;;;;54.43;27.63;;;-5.00;99.90;;;;;;5055651;28;20754;-45
2022/12/13 00:18:26;;;;;;;59.20;28.77;;;-4.90;99.90;;;;;;5054728;28;20209;-60
2022/12/13 00:20:53;;;;;;;64.73;29.70;;;-4.90;99.90;;;;;;5062734;28;20213;-46
2022/12/13 00:23:20;;;;;;;52.43;27.70;;;-4.90;99.90;;;;;;5050976;28;20209;-59
2022/12/13 00:25:47;;;;;;;57.93;30.70;;;-4.90;99.90;;;;;;5056666;28;20194;-44
2022/12/13 00:28:15;;;;;;;55.47;28.43;;;-4.90;99.90;;;;;;5041835;28;20219;-58
2022/12/13 00:30:43;;;;;;;60.97;29.67;;;-4.90;99.90;;;;;;5054346;28;20236;-46
2022/12/13 00:33:10;;;;;;;54.87;27.67;;;-4.80;99.90;;;;;;5057794;28;20210;-46
2022/12/13 00:35:41;;;;;;;54.33;27.80;;;-4.70;99.90;;;;;;5060010;28;20212;-47
2022/12/13 00:38:09;;;;;;;53.60;29.03;;;-4.70;99.90;;;;;;5054240;28;20285;-54
2022/12/13 00:40:36;;;;;;;53.63;28.33;;;-4.70;99.90;;;;;;5052429;28;20219;-49
2022/12/13 00:43:02;;;;;;;60.27;28.27;;;-4.70;99.90;;;;;;5047698;28;20210;-45
2022/12/13 00:45:29;;;;;;;58.87;27.73;;;-4.70;99.90;;;;;;5059129;28;20187;-59
2022/12/13 00:47:58;;;;;;;56.33;29.20;;;-4.60;99.90;;;;;;5051024;28;20221;-45
2022/12/13 00:50:25;;;;;;;57.93;29.87;;;-4.60;99.90;;;;;;5054040;28;20692;-57
2022/12/13 00:52:52;;;;;;;57.67;28.53;;;-4.60;99.90;;;;;;5061859;28;20205;-50
2022/12/13 00:55:18;;;;;;;59.63;29.53;;;-4.60;99.90;;;;;;5048076;28;20718;-58
2022/12/13 00:57:45;;;;;;;56.83;29.13;;;-4.60;99.90;;;;;;5060744;28;20278;-43
2022/12/13 01:00:12;;;;;;;55.93;29.13;;;-4.50;99.90;;;;;;5048244;28;20206;-60
2022/12/13 01:02:40;;;;;;;57.83;28.60;;;-4.50;99.90;;;;;;5052895;28;20213;-48
2022/12/13 01:05:09;;;;;;;64.83;30.70;;;-4.40;99.90;;;;;;5056105;28;20198;-43
2022/12/13 01:07:36;;;;;;;61.10;28.43;;;-4.40;99.90;;;;;;5059536;28;20702;-45
2022/12/13 01:10:04;;;;;;;53.83;29.40;;;-4.40;99.90;;;;;;5053384;28;20194;-49
2022/12/13 01:12:31;;;;;;;61.07;29.87;;;-4.40;99.90;;;;;;5051500;28;20275;-51
2022/12/13 01:14:58;;;;;;;56.80;27.37;;;-4.40;99.90;;;;;;5047899;28;20221;-48
2022/12/13 01:17:25;;;;;;;71.60;32.90;;;-4.40;99.90;;;;;;5056668;28;20702;-60
2022/12/13 01:19:52;;;;;;;56.27;31.13;;;-4.30;99.90;;;;;;5060413;28;20210;-43
2022/12/13 01:22:20;;;;;;;59.07;31.17;;;-4.30;99.90;;;;;;5061420;28;20229;-58
2022/12/13 01:24:47;;;;;;;61.83;30.37;;;-4.30;99.90;;;;;;5053789;28;20199;-51
2022/12/13 01:27:14;;;;;;;59.00;29.93;;;-4.30;99.90;;;;;;5044480;28;20198;-59
2022/12/13 01:29:42;;;;;;;62.97;29.03;;;-4.30;99.90;;;;;;5047621;28;20202;-45
2022/12/13 01:32:09;;;;;;;56.43;30.57;;;-4.30;99.90;;;;;;5059983;28;20566;-59
2022/12/13 01:34:36;;;;;;;58.27;27.20;;;-4.30;99.90;;;;;;5057303;28;20230;-46
2022/12/13 01:37:03;;;;;;;50.70;26.23;;;-4.30;99.90;;;;;;5066050;28;20197;-57
2022/12/13 01:39:31;;;;;;;49.77;23.73;;;-4.30;99.90;;;;;;5064750;28;20971;-43
2022/12/13 01:42:01;;;;;;;57.67;26.23;;;-4.30;99.90;;;;;;5056511;28;20246;-57
2022/12/13 01:45:01;;;;;;;55.20;28.63;;;-4.30;99.90;;;;;;5048548;28;20206;-46
2022/12/13 01:47:32;;;;;;;45.93;24.30;;;-4.30;99.90;;;;;;5061788;28;20193;-46
2022/12/13 01:50:02;;;;;;;51.40;27.33;;;-4.30;99.90;;;;;;5060753;28;20203;-54
2022/12/13 01:52:33;;;;;;;55.20;28.17;;;-4.40;99.90;;;;;;5064066;28;20214;-43
2022/12/13 01:55:03;;;;;;;54.10;27.17;;;-4.40;99.90;;;;;;5066114;28;20218;-59
2022/12/13 01:57:30;;;;;;;52.43;26.20;;;-4.40;99.90;;;;;;5052971;28;20198;-43
2022/12/13 01:59:58;;;;;;;55.63;26.47;;;-4.40;99.90;;;;;;5051195;28;20209;-58
2022/12/13 02:02:25;;;;;;;54.40;25.80;;;-4.40;99.90;;;;;;5062653;28;20229;-45
2022/12/13 02:05:04;;;;;;;57.20;26.73;;;-4.40;99.90;;;;;;5060471;28;20281;-43
2022/12/13 02:07:34;;;;;;;46.67;26.53;;;-4.40;99.90;;;;;;5064483;28;20277;-43
2022/12/13 02:10:05;;;;;;;54.20;26.13;;;-4.50;99.90;;;;;;5065812;28;20205;-54
2022/12/13 02:12:35;;;;;;;47.93;25.27;;;-4.50;99.90;;;;;;5054785;28;20217;-42
2022/12/13 02:15:06;;;;;;;51.43;26.30;;;-4.50;99.90;;;;;;5060020;28;20717;-58
2022/12/13 02:17:44;;;;;;;49.43;26.20;;;-4.50;99.90;;;;;;5059441;28;20217;-46
2022/12/13 02:20:41;;;;;;;51.97;24.53;;;-4.50;99.90;;;;;;5057713;28;20213;-57
2022/12/13 02:23:29;;;;;;;47.27;24.40;;;-4.50;99.90;;;;;;5049984;28;20579;-57
2022/12/13 02:26:32;;;;;;;52.03;25.20;;;-4.50;99.90;;;;;;5057905;28;20670;-43
2022/12/13 02:29:26;;;;;;;51.60;25.10;;;-4.50;99.90;;;;;;5037675;28;20289;-57
2022/12/13 02:32:01;;;;;;;48.17;24.77;;;-4.50;99.90;;;;;;5050889;28;20228;-54
2022/12/13 02:34:36;;;;;;;54.57;26.63;;;-4.50;99.90;;;;;;5052291;28;20200;-44
2022/12/13 02:37:07;;;;;;;47.43;23.77;;;-4.40;99.90;;;;;;5065087;28;20198;-57
2022/12/13 02:39:39;;;;;;;44.90;24.07;;;-4.40;99.90;;;;;;5064469;28;20333;-44
2022/12/13 02:42:13;;;;;;;50.57;24.73;;;-4.40;99.90;;;;;;5057762;28;20221;-57
2022/12/13 02:44:50;;;;;;;49.67;24.30;;;-4.40;99.90;;;;;;5050452;28;20206;-46
2022/12/13 02:47:21;;;;;;;49.07;24.23;;;-4.40;99.90;;;;;;5046990;28;20807;-48
2022/12/13 02:49:52;;;;;;;49.90;24.90;;;-4.50;99.90;;;;;;5065490;28;20213;-48
2022/12/13 02:52:22;;;;;;;51.00;24.20;;;-4.50;99.90;;;;;;5055797;28;20233;-45
2022/12/13 02:54:49;;;;;;;46.33;24.77;;;-4.50;99.90;;;;;;5065628;28;20218;-52
2022/12/13 02:57:31;;;;;;;51.30;25.33;;;-4.50;99.90;;;;;;5061589;28;20259;-52
2022/12/13 02:59:59;;;;;;;46.50;24.07;;;-4.50;99.90;;;;;;5050228;28;20203;-56
2022/12/13 03:02:38;;;;;;;46.77;24.23;;;-4.50;99.90;;;;;;5046754;28;23290;-48
2022/12/13 03:08:16;;;;;;;44.07;21.90;;;-4.50;99.90;;;;;;5062789;28;20205;-61
2022/12/13 03:10:51;;;;;;;42.27;22.57;;;-4.60;99.90;;;;;;5060698;28;20214;-48
2022/12/13 03:13:36;;;;;;;44.53;24.17;;;-4.60;99.90;;;;;;5055826;28;20943;-46
2022/12/13 03:16:09;;;;;;;47.47;24.43;;;-4.60;99.90;;;;;;5051355;28;20590;-58
2022/12/13 03:18:38;;;;;;;49.80;24.43;;;-4.60;99.90;;;;;;5049126;28;20978;-49
2022/12/13 03:21:08;;;;;;;47.87;24.53;;;-4.50;99.90;;;;;;5061130;28;20233;-63
2022/12/13 03:23:36;;;;;;;44.60;23.63;;;-4.50;99.90;;;;;;5061241;28;20209;-43
2022/12/13 03:26:09;;;;;;;43.90;22.97;;;-4.50;99.90;;;;;;5062625;28;20209;-59
2022/12/13 03:28:37;;;;;;;43.97;22.90;;;-4.50;99.90;;;;;;5064201;28;20201;-48
2022/12/13 03:31:04;;;;;;;53.93;25.60;;;-4.50;99.90;;;;;;5051015;28;20222;-58
2022/12/13 03:33:31;;;;;;;47.53;24.17;;;-4.60;99.90;;;;;;5047624;28;20217;-48
2022/12/13 03:36:01;;;;;;;49.27;23.73;;;-4.50;99.90;;;;;;5064071;28;20240;-57
2022/12/13 03:38:29;;;;;;;47.30;22.10;;;-4.50;99.90;;;;;;5054563;28;20912;-48
2022/12/13 03:40:59;;;;;;;43.20;23.27;;;-4.50;99.90;;;;;;5062506;28;20225;-57
2022/12/13 03:43:26;;;;;;;50.73;24.77;;;-4.50;99.90;;;;;;5062528;28;20221;-45
2022/12/13 03:45:54;;;;;;;47.63;23.70;;;-4.50;99.90;;;;;;5063860;28;20194;-61
2022/12/13 03:48:23;;;;;;;42.20;21.97;;;-4.50;99.90;;;;;;5054199;28;20210;-46
2022/12/13 03:50:51;;;;;;;49.40;23.37;;;-4.50;99.90;;;;;;5046132;28;20614;-43
2022/12/13 03:53:20;;;;;;;42.43;22.77;;;-4.60;99.90;;;;;;5051853;28;20452;-46
2022/12/13 03:55:47;;;;;;;43.73;21.97;;;-4.60;99.90;;;;;;5060735;28;20219;-51
2022/12/13 03:58:36;;;;;;;43.70;21.67;;;-4.60;99.90;;;;;;5063580;28;20209;-46
2022/12/13 04:01:04;;;;;;;40.37;20.53;;;-4.50;99.90;;;;;;5055870;28;20227;-61
2022/12/13 04:03:31;;;;;;;45.00;21.83;;;-4.60;99.90;;;;;;5060081;28;20336;-46
2022/12/13 04:05:58;;;;;;;50.20;21.90;;;-4.60;99.90;;;;;;5046937;28;20297;-60
2022/12/13 04:08:26;;;;;;;50.37;23.00;;;-4.60;99.90;;;;;;5061901;28;20191;-43
2022/12/13 04:10:53;;;;;;;43.90;22.47;;;-4.60;99.90;;;;;;5058586;28;20651;-58
2022/12/13 04:13:31;;;;;;;50.07;22.33;;;-4.50;99.90;;;;;;5061094;28;20838;-47
2022/12/13 04:15:58;;;;;;;45.93;22.93;;;-4.50;99.90;;;;;;5062961;28;20225;-58
2022/12/13 04:18:25;;;;;;;46.00;21.90;;;-4.40;99.90;;;;;;5051524;28;20207;-44
2022/12/13 04:20:52;;;;;;;41.60;22.03;;;-4.40;99.90;;;;;;5049382;28;20296;-58
2022/12/13 04:23:19;;;;;;;43.73;21.67;;;-4.40;99.90;;;;;;5059747;28;20186;-45
2022/12/13 04:25:47;;;;;;;41.17;20.67;;;-4.40;99.90;;;;;;5058434;28;20275;-50
2022/12/13 04:28:14;;;;;;;41.17;19.77;;;-4.30;99.90;;;;;;5058675;28;20210;-53
2022/12/13 04:30:41;;;;;;;49.00;22.03;;;-4.30;99.90;;;;;;5061399;28;20218;-50
2022/12/13 04:33:08;;;;;;;47.67;23.27;;;-4.30;99.90;;;;;;5050180;28;20213;-59
2022/12/13 04:35:35;;;;;;;42.93;21.63;;;-4.20;99.90;;;;;;5054785;28;20207;-44
2022/12/13 04:38:01;;;;;;;48.40;22.53;;;-4.20;99.90;;;;;;5045712;28;20203;-58
2022/12/13 04:40:28;;;;;;;40.70;20.37;;;-4.20;99.90;;;;;;5061834;28;20194;-54
2022/12/13 04:42:56;;;;;;;49.37;23.03;;;-4.20;99.90;;;;;;5057441;28;20210;-60
2022/12/13 04:45:23;;;;;;;45.47;20.50;;;-4.20;99.90;;;;;;5061307;28;20187;-43
2022/12/13 04:47:50;;;;;;;43.47;22.80;;;-4.10;99.90;;;;;;5054270;28;20213;-46
2022/12/13 04:50:17;;;;;;;46.07;22.57;;;-4.10;99.90;;;;;;5059462;28;20190;-43
2022/12/13 04:52:45;;;;;;;45.77;21.30;;;-4.10;99.90;;;;;;5042249;28;20203;-50
2022/12/13 04:55:12;;;;;;;47.20;22.50;;;-4.10;99.90;;;;;;5059130;28;20260;-53
2022/12/13 04:57:39;;;;;;;42.00;22.50;;;-4.10;99.90;;;;;;5056825;28;20278;-53
2022/12/13 05:00:12;;;;;;;42.90;20.73;;;-4.00;99.90;;;;;;5060222;28;20934;-60
2022/12/13 05:02:40;;;;;;;42.43;21.17;;;-4.00;99.90;;;;;;5062912;28;20684;-51
2022/12/13 05:05:08;;;;;;;42.40;22.57;;;-3.90;99.90;;;;;;5050275;28;20578;-60
2022/12/13 05:07:37;;;;;;;43.03;22.03;;;-3.90;99.90;;;;;;5058377;28;20267;-43
2022/12/13 05:10:04;;;;;;;43.30;20.77;;;-3.80;99.90;;;;;;5046475;28;20209;-56
2022/12/13 05:12:31;;;;;;;47.00;22.77;;;-3.80;99.90;;;;;;5053933;28;20784;-47
2022/12/13 05:14:58;;;;;;;46.63;20.60;;;-3.70;99.90;;;;;;5061116;28;20222;-57
2022/12/13 05:17:26;;;;;;;43.07;20.37;;;-3.70;99.90;;;;;;5061341;28;20222;-44
2022/12/13 05:19:53;;;;;;;40.07;20.40;;;-3.70;99.90;;;;;;5052551;28;20739;-56
2022/12/13 05:22:20;;;;;;;41.97;20.43;;;-3.70;99.90;;;;;;5054213;28;20310;-48
2022/12/13 05:24:48;;;;;;;41.93;20.60;;;-3.60;99.90;;;;;;5049449;28;20256;-44
2022/12/13 05:27:15;;;;;;;45.70;20.33;;;-3.60;99.90;;;;;;5053124;28;20206;-53
2022/12/13 05:29:43;;;;;;;41.13;20.57;;;-3.60;99.90;;;;;;5063391;28;20225;-44
2022/12/13 05:32:10;;;;;;;46.23;21.03;;;-3.50;99.90;;;;;;5057275;28;20222;-58
2022/12/13 05:34:38;;;;;;;39.20;20.20;;;-3.50;99.90;;;;;;5053525;28;20240;-45
2022/12/13 05:37:05;;;;;;;40.80;19.40;;;-3.50;99.90;;;;;;5053253;28;20222;-60
2022/12/13 05:39:32;;;;;;;43.13;20.77;;;-3.50;99.90;;;;;;5061296;28;20652;-48
2022/12/13 05:41:59;;;;;;;36.07;19.40;;;-3.40;99.90;;;;;;5045937;28;20246;-59
2022/12/13 05:44:26;;;;;;;43.47;20.20;;;-3.40;99.90;;;;;;5057624;28;20211;-51
2022/12/13 05:46:53;;;;;;;46.00;22.00;;;-3.40;99.90;;;;;;5062938;28;20191;-58
2022/12/13 05:49:20;;;;;;;40.50;20.73;;;-3.40;99.90;;;;;;5050529;28;20485;-49
2022/12/13 05:51:49;;;;;;;44.40;20.90;;;-3.40;99.90;;;;;;5062340;28;20214;-47
2022/12/13 05:54:15;;;;;;;38.63;19.63;;;-3.40;99.90;;;;;;5053752;28;20226;-43
2022/12/13 05:56:42;;;;;;;39.90;19.57;;;-3.40;99.90;;;;;;5048954;28;20216;-49
2022/12/13 05:59:09;;;;;;;42.47;18.97;;;-3.30;99.90;;;;;;5052853;28;20213;-61
2022/12/13 06:01:36;;;;;;;36.03;19.07;;;-3.40;99.90;;;;;;5062280;28;20663;-44
2022/12/13 06:04:03;;;;;;;35.50;19.87;;;-3.40;99.90;;;;;;5055043;28;20203;-59
2022/12/13 06:06:30;;;;;;;36.63;19.20;;;-3.30;99.90;;;;;;5057564;28;20198;-46
2022/12/13 06:09:00;;;;;;;40.07;18.73;;;-3.30;99.90;;;;;;5061648;28;20260;-58
2022/12/13 06:11:27;;;;;;;40.20;20.80;;;-3.30;99.90;;;;;;5057691;28;20967;-50
2022/12/13 06:13:53;;;;;;;39.40;18.80;;;-3.20;99.90;;;;;;5042667;28;20579;-56
2022/12/13 06:16:20;;;;;;;39.47;19.37;;;-3.30;99.90;;;;;;5058864;28;20222;-47
2022/12/13 06:18:47;;;;;;;35.80;19.27;;;-3.20;99.90;;;;;;5061594;28;20210;-45
2022/12/13 06:21:14;;;;;;;38.10;20.63;;;-3.20;99.90;;;;;;5050379;28;20215;-47
2022/12/13 06:23:41;;;;;;;42.43;18.93;;;-3.20;99.90;;;;;;5065101;28;20223;-43
2022/12/13 06:26:09;;;;;;;35.50;18.00;;;-3.20;99.90;;;;;;5057682;28;20684;-58
2022/12/13 06:28:36;;;;;;;39.53;18.27;;;-3.20;99.90;;;;;;5051303;28;20206;-47
2022/12/13 06:31:04;;;;;;;41.47;19.07;;;-3.20;99.90;;;;;;5050968;28;20289;-60
2022/12/13 06:33:34;;;;;;;33.47;18.37;;;-3.20;99.90;;;;;;5065243;28;20217;-43
2022/12/13 06:36:01;;;;;;;38.57;18.67;;;-3.20;99.90;;;;;;5055072;28;20701;-59
2022/12/13 06:38:30;;;;;;;36.17;18.07;;;-3.10;99.90;;;;;;5064308;28;20183;-43
2022/12/13 06:41:07;;;;;;;36.33;18.40;;;-3.10;99.90;;;;;;5059841;28;20234;-61
2022/12/13 06:43:35;;;;;;;34.67;16.87;;;-3.10;99.90;;;;;;5045407;28;20194;-48
2022/12/13 06:46:03;;;;;;;34.73;17.23;;;-3.10;99.90;;;;;;5050966;28;20291;-59
2022/12/13 06:48:30;;;;;;;33.97;17.37;;;-3.10;99.90;;;;;;5065936;28;20210;-49
2022/12/13 06:51:00;;;;;;;32.83;17.73;;;-3.10;99.90;;;;;;5052403;28;20253;-60
2022/12/13 06:53:27;;;;;;;31.60;16.80;;;-3.10;99.90;;;;;;5054654;28;20661;-47
2022/12/13 06:55:54;;;;;;;37.43;17.43;;;-3.00;99.90;;;;;;5052797;28;20289;-58
2022/12/13 06:58:21;;;;;;;39.30;18.23;;;-3.00;99.90;;;;;;5062017;28;20186;-43
2022/12/13 07:00:49;;;;;;;36.77;16.67;;;-3.00;99.90;;;;;;5035516;28;20233;-62
2022/12/13 07:03:16;;;;;;;38.77;17.27;;;-3.00;99.90;;;;;;5060175;28;20197;-44
2022/12/13 07:05:42;;;;;;;35.00;17.60;;;-3.00;99.90;;;;;;5056823;28;20575;-59
2022/12/13 07:08:09;;;;;;;38.97;18.50;;;-3.00;99.90;;;;;;5051235;28;20928;-49
2022/12/13 07:10:39;;;;;;;36.67;18.83;;;-3.00;99.90;;;;;;5054641;28;20298;-54
2022/12/13 07:13:06;;;;;;;39.43;18.17;;;-3.00;99.90;;;;;;5054901;28;20202;-45
2022/12/13 07:15:33;;;;;;;33.47;16.23;;;-3.00;99.90;;;;;;5046385;28;20213;-50
2022/12/13 07:18:01;;;;;;;36.30;17.87;;;-3.00;99.90;;;;;;5050811;28;20221;-47
2022/12/13 07:20:28;;;;;;;35.17;17.43;;;-2.90;99.90;;;;;;5051910;28;20215;-45
2022/12/13 07:22:56;;;;;;;36.93;17.27;;;-3.00;99.90;;;;;;5049737;28;20207;-60
2022/12/13 07:25:22;;;;;;;43.20;20.70;;;-2.90;99.90;;;;;;5064246;28;20607;-47
2022/12/13 07:27:55;;;;;;;39.50;18.63;;;-2.90;99.90;;;;;;5053295;28;20202;-60
2022/12/13 07:30:22;;;;;;;41.70;18.87;;;-2.90;99.90;;;;;;5040313;28;20195;-48
2022/12/13 07:32:48;;;;;;;36.90;17.33;;;-2.90;99.90;;;;;;5052748;28;20199;-60
2022/12/13 07:35:16;;;;;;;39.13;19.17;;;-2.90;99.90;;;;;;5046501;28;21401;-51
2022/12/13 07:37:43;;;;;;;34.07;17.80;;;-2.90;99.90;;;;;;5052305;28;20207;-62
2022/12/13 07:40:11;;;;;;;36.13;17.50;;;-2.90;99.90;;;;;;5054256;28;20194;-46
2022/12/13 07:42:38;;;;;;;38.17;17.77;;;-2.80;99.90;;;;;;5055959;28;20230;-60
2022/12/13 07:45:05;;;;;;;34.30;17.30;;;-2.80;99.90;;;;;;5053007;28;20199;-48
2022/12/13 07:47:32;;;;;;;32.77;16.63;;;-2.80;99.90;;;;;;5047934;28;20225;-48
2022/12/13 07:49:59;;;;;;;29.97;17.47;;;-2.80;99.90;;;;;;5053921;28;20850;-52
2022/12/13 07:52:27;;;;;;;36.23;17.33;;;-2.80;99.90;;;;;;5055296;28;20244;-45
2022/12/13 07:54:54;;;;;;;38.33;17.03;;;-2.80;99.90;;;;;;5050364;28;20207;-58
2022/12/13 07:57:21;;;;;;;30.37;15.57;;;-2.80;99.90;;;;;;5060884;28;20252;-49
2022/12/13 07:59:48;;;;;;;36.80;17.83;;;-2.70;99.90;;;;;;5045888;28;20677;-62
2022/12/13 08:02:15;;;;;;;35.03;16.70;;;-2.70;99.90;;;;;;5042338;28;20216;-45
2022/12/13 08:04:43;;;;;;;37.63;17.53;;;-2.80;99.90;;;;;;5052092;28;20673;-60
2022/12/13 08:07:10;;;;;;;40.37;18.90;;;-2.70;99.90;;;;;;5050339;28;20236;-54
2022/12/13 08:09:38;;;;;;;32.90;16.47;;;-2.70;99.90;;;;;;5046211;28;20578;-55
2022/12/13 08:12:06;;;;;;;39.53;17.20;;;-2.70;99.90;;;;;;5054964;28;20226;-45
2022/12/13 08:14:33;;;;;;;38.03;17.37;;;-2.60;99.90;;;;;;5055275;28;20673;-53
2022/12/13 08:17:00;;;;;;;41.27;17.40;;;-2.60;99.90;;;;;;5041034;28;20215;-47
2022/12/13 08:19:27;;;;;;;30.47;16.37;;;-2.60;99.90;;;;;;5054072;28;20696;-48
2022/12/13 08:21:55;;;;;;;39.83;18.10;;;-2.50;99.90;;;;;;5053845;28;20226;-60
2022/12/13 08:24:22;;;;;;;36.97;18.00;;;-2.50;99.90;;;;;;5044771;28;20202;-43
2022/12/13 08:26:50;;;;;;;36.40;17.70;;;-2.50;99.90;;;;;;5059695;28;20206;-59
2022/12/13 08:29:17;;;;;;;33.67;15.83;;;-2.40;99.90;;;;;;5059357;28;20732;-46
2022/12/13 08:31:45;;;;;;;37.53;18.40;;;-2.40;99.90;;;;;;5055975;28;20287;-59
2022/12/13 08:34:11;;;;;;;33.03;15.77;;;-2.40;99.90;;;;;;5041327;28;20202;-44
2022/12/13 08:36:38;;;;;;;36.33;17.63;;;-2.30;99.90;;;;;;5056194;28;20211;-59
2022/12/13 08:39:05;;;;;;;34.03;17.30;;;-2.30;99.90;;;;;;5045857;28;20233;-47
2022/12/13 08:41:32;;;;;;;36.20;17.40;;;-2.30;99.90;;;;;;5052959;28;20218;-43
2022/12/13 08:44:00;;;;;;;35.70;16.53;;;-2.30;99.90;;;;;;5050519;28;20307;-45
2022/12/13 08:46:27;;;;;;;34.47;16.93;;;-2.30;99.90;;;;;;5054386;28;20206;-50
2022/12/13 08:48:54;;;;;;;36.40;17.27;;;-2.30;99.90;;;;;;5044232;28;20207;-59
2022/12/13 08:51:22;;;;;;;38.07;17.53;;;-2.30;99.90;;;;;;5048246;28;20712;-43
2022/12/13 08:53:49;;;;;;;37.97;17.67;;;-2.30;99.90;;;;;;5055044;28;20693;-61
2022/12/13 08:56:17;;;;;;;38.60;17.90;;;-2.30;99.90;;;;;;5046938;28;20201;-60
2022/12/13 08:58:48;;;;;;;39.63;17.50;;;-2.20;99.90;;;;;;5051587;28;20191;-48
2022/12/13 09:01:17;;;;;;;42.03;17.83;;;-2.20;99.90;;;;;;5044360;28;20317;-61
2022/12/13 09:03:45;;;;;;;39.47;16.87;;;-2.20;99.90;;;;;;5043324;28;20262;-45
2022/12/13 09:06:15;;;;;;;36.80;18.00;;;-2.10;99.90;;;;;;5053737;28;20211;-59
2022/12/13 09:08:44;;;;;;;37.27;18.03;;;-2.10;99.90;;;;;;5050890;28;20199;-44
2022/12/13 09:11:11;;;;;;;37.33;16.90;;;-2.10;99.90;;;;;;5047751;28;20727;-62
2022/12/13 09:13:39;;;;;;;35.73;17.27;;;-2.10;99.90;;;;;;5041759;28;20203;-44
2022/12/13 09:16:08;;;;;;;35.80;17.47;;;-2.10;99.90;;;;;;5054365;28;20851;-54
2022/12/13 09:18:37;;;;;;;31.87;16.90;;;-2.10;99.90;;;;;;5051608;28;20226;-48
2022/12/13 09:21:07;;;;;;;37.23;17.23;;;-2.10;99.90;;;;;;5026896;28;20610;-47
2022/12/13 09:23:34;;;;;;;36.73;18.00;;;-2.10;99.90;;;;;;5055298;28;20201;-48
2022/12/13 09:26:01;;;;;;;32.57;16.37;;;-2.10;99.90;;;;;;5046664;28;20217;-50
2022/12/13 09:28:28;;;;;;;31.93;18.03;;;-2.00;99.90;;;;;;5038306;28;20673;-61
2022/12/13 09:30:55;;;;;;;29.83;14.77;;;-2.00;99.90;;;;;;5050681;28;20285;-46
2022/12/13 09:33:22;;;;;;;33.23;16.93;;;-1.90;99.90;;;;;;5049487;28;20311;-61
2022/12/13 09:35:51;;;;;;;35.17;17.80;;;-1.90;99.90;;;;;;5041443;28;20207;-46
2022/12/13 09:38:19;;;;;;;34.67;17.57;;;-1.90;99.90;;;;;;5053974;28;20368;-62
2022/12/13 09:40:49;;;;;;;41.60;18.23;;;-1.80;99.90;;;;;;5047159;28;20222;-47
2022/12/13 09:43:22;;;;;;;39.20;18.53;;;-1.70;99.90;;;;;;5041812;28;20195;-62
2022/12/13 09:45:50;;;;;;;29.13;16.67;;;-1.80;99.90;;;;;;5050603;28;20309;-52
2022/12/13 09:48:18;;;;;;;33.03;15.63;;;-1.70;99.90;;;;;;5057516;28;20277;-62
2022/12/13 09:50:45;;;;;;;33.20;16.53;;;-1.60;99.90;;;;;;5038469;28;20304;-48
2022/12/13 09:53:16;;;;;;;34.10;16.97;;;-1.60;99.90;;;;;;5062587;28;20290;-49
2022/12/13 09:55:47;;;;;;;35.40;17.07;;;-1.50;99.90;;;;;;5051902;28;20194;-54
2022/12/13 09:58:18;;;;;;;31.30;16.53;;;-1.40;99.90;;;;;;5054548;28;20226;-60
2022/12/13 10:00:47;;;;;;;33.10;17.00;;;-1.30;99.90;;;;;;5053934;28;20215;-47
2022/12/13 10:03:16;;;;;;;36.40;17.13;;;-1.30;99.90;;;;;;5039687;28;21761;-50
2022/12/13 10:05:50;;;;;;;33.87;17.37;;;-1.10;99.90;;;;;;5053139;28;20207;-64
2022/12/13 10:08:23;;;;;;;35.97;17.57;;;-1.10;99.90;;;;;;5042114;28;20218;-47
2022/12/13 10:10:51;;;;;;;33.50;18.13;;;-1.10;99.90;;;;;;5060308;28;20245;-62
2022/12/13 10:13:21;;;;;;;33.20;17.87;;;-1.00;99.90;;;;;;5052273;28;20193;-51
2022/12/13 10:15:53;;;;;;;31.97;16.63;;;-1.00;99.90;;;;;;5060163;28;20215;-63
2022/12/13 10:18:31;;;;;;;35.57;17.23;;;-1.00;99.90;;;;;;5055660;28;20234;-53
2022/12/13 10:20:58;;;;;;;35.50;16.67;;;-0.90;99.90;;;;;;5047135;28;20302;-63
2022/12/13 10:23:26;;;;;;;38.57;17.80;;;-0.90;99.90;;;;;;5042332;28;20221;-49
2022/12/13 10:25:54;;;;;;;35.43;17.30;;;-0.90;99.90;;;;;;5057592;28;20247;-63
2022/12/13 10:28:27;;;;;;;33.73;17.80;;;-0.80;99.90;;;;;;5050508;28;20211;-49
2022/12/13 10:30:56;;;;;;;36.10;18.93;;;-0.80;99.90;;;;;;5058377;28;20629;-61
2022/12/13 10:33:26;;;;;;;39.13;17.70;;;-0.70;99.90;;;;;;5056016;28;20737;-52
2022/12/13 10:36:07;;;;;;;32.97;17.07;;;-0.70;99.90;;;;;;5051375;28;20684;-60
2022/12/13 10:38:39;;;;;;;41.27;18.70;;;-0.70;99.90;;;;;;5050724;28;20211;-51
2022/12/13 10:41:28;;;;;;;37.00;17.37;;;-0.70;99.90;;;;;;5055357;28;20242;-44
2022/12/13 10:44:17;;;;;;;35.87;17.37;;;-0.60;99.90;;;;;;5046344;28;20204;-62
2022/12/13 10:46:49;;;;;;;34.03;17.43;;;-0.60;99.90;;;;;;5060627;28;20191;-59
2022/12/13 10:49:18;;;;;;;36.57;17.60;;;-0.60;99.90;;;;;;5057961;28;20182;-49
2022/12/13 10:51:46;;;;;;;38.20;16.97;;;-0.60;99.90;;;;;;5048749;28;20302;-62
2022/12/13 10:54:19;;;;;;;39.30;16.90;;;-0.50;99.90;;;;;;5051601;28;20797;-49
2022/12/13 10:56:48;;;;;;;36.40;18.87;;;-0.60;99.90;;;;;;5053391;28;20652;-63
2022/12/13 10:59:25;;;;;;;35.27;16.37;;;-0.50;99.90;;;;;;5046742;28;21033;-48
2022/12/13 11:01:52;;;;;;;32.67;16.07;;;-0.40;99.90;;;;;;5057506;28;20820;-61
2022/12/13 11:04:26;;;;;;;38.77;16.90;;;-0.40;99.90;;;;;;5053208;28;20207;-45
2022/12/13 11:06:53;;;;;;;36.30;17.53;;;-0.30;99.90;;;;;;5041965;28;20731;-60
2022/12/13 11:09:31;;;;;;;32.37;15.43;;;-0.30;99.90;;;;;;5053338;28;20204;-45
2022/12/13 11:12:01;;;;;;;29.50;16.20;;;-0.30;99.90;;;;;;5052602;28;20218;-62
2022/12/13 11:14:31;;;;;;;31.67;16.17;;;-0.30;99.90;;;;;;5042355;28;20208;-53
2022/12/13 11:17:07;;;;;;;30.57;15.43;;;-0.20;99.90;;;;;;5052119;28;20201;-61
2022/12/13 11:19:38;;;;;;;30.77;15.80;;;-0.20;99.90;;;;;;5056096;28;20208;-49
2022/12/13 11:22:08;;;;;;;28.40;14.73;;;-0.20;99.90;;;;;;5047576;28;20233;-50
2022/12/13 11:24:40;;;;;;;27.30;14.47;;;-0.10;99.90;;;;;;5049541;28;20204;-47
2022/12/13 11:27:22;;;;;;;28.30;13.77;;;-0.10;99.90;;;;;;5049986;28;20200;-56
2022/12/13 11:30:08;;;;;;;25.23;14.13;;;-0.10;99.90;;;;;;5049669;28;20704;-61
2022/12/13 11:32:49;;;;;;;24.20;11.83;;;0.00;99.90;;;;;;5059697;28;20218;-46
2022/12/13 11:35:23;;;;;;;22.33;11.90;;;0.00;99.90;;;;;;5049502;28;20200;-46
2022/12/13 11:37:58;;;;;;;22.67;13.13;;;0.00;99.90;;;;;;5048021;28;20256;-62
2022/12/13 11:40:29;;;;;;;23.90;13.50;;;0.00;99.90;;;;;;5043323;28;20561;-49
2022/12/13 11:43:02;;;;;;;22.03;11.97;;;0.10;99.90;;;;;;5051182;28;20927;-62
2022/12/13 11:45:35;;;;;;;26.00;13.27;;;0.10;99.90;;;;;;5058627;28;20209;-44
2022/12/13 11:48:09;;;;;;;26.03;13.90;;;0.10;99.90;;;;;;5049916;28;20271;-45
2022/12/13 11:50:39;;;;;;;25.73;13.10;;;0.10;99.90;;;;;;5056784;28;20678;-49
2022/12/13 11:53:20;;;;;;;27.10;13.40;;;0.10;99.90;;;;;;5051919;28;20189;-44
2022/12/13 11:55:55;;;;;;;28.80;13.47;;;0.20;99.90;;;;;;5028783;28;20205;-58
2022/12/13 11:58:27;;;;;;;27.30;14.37;;;0.20;99.90;;;;;;5051914;28;20205;-60
2022/12/13 12:00:59;;;;;;;25.30;13.97;;;0.20;99.90;;;;;;5052703;28;20237;-46
2022/12/13 12:03:36;;;;;;;24.83;13.87;;;0.20;99.90;;;;;;5042806;28;20202;-61
2022/12/13 12:06:07;;;;;;;28.90;14.23;;;0.20;99.90;;;;;;5059496;28;20237;-44
2022/12/13 12:08:38;;;;;;;22.97;14.13;;;0.20;99.90;;;;;;5047664;28;20205;-47
2022/12/13 12:11:14;;;;;;;31.33;13.53;;;0.30;99.90;;;;;;5041215;28;20224;-48
2022/12/13 12:13:45;;;;;;;23.43;13.77;;;0.30;99.90;;;;;;5050573;28;20258;-54
2022/12/13 12:16:20;;;;;;;28.27;13.57;;;0.30;99.90;;;;;;5047532;28;20680;-57
2022/12/13 12:18:47;;;;;;;27.93;14.13;;;0.30;99.90;;;;;;5052391;28;20882;-48
2022/12/13 12:21:28;;;;;;;20.03;12.43;;;0.40;99.90;;;;;;5054552;28;20728;-60
2022/12/13 12:24:08;;;;;;;20.93;12.87;;;0.40;99.90;;;;;;5055074;28;20198;-47
2022/12/13 12:26:46;;;;;;;19.10;10.80;;;0.50;99.90;;;;;;5036719;28;20216;-46
2022/12/13 12:29:44;;;;;;;24.53;13.30;;;0.40;99.90;;;;;;5048672;28;20200;-56
2022/12/13 12:32:18;;;;;;;22.40;11.80;;;0.40;99.90;;;;;;5054986;28;20621;-46
2022/12/13 12:34:55;;;;;;;20.23;11.83;;;0.50;99.90;;;;;;5047227;28;20193;-45
2022/12/13 12:37:31;;;;;;;19.10;11.03;;;0.50;99.90;;;;;;5058246;28;20205;-61
2022/12/13 12:40:32;;;;;;;20.40;11.60;;;0.60;99.90;;;;;;5052450;28;20204;-44
2022/12/13 12:43:10;;;;;;;22.37;11.83;;;0.70;99.90;;;;;;5037604;28;20230;-44
2022/12/13 12:45:51;;;;;;;20.63;12.13;;;0.80;99.90;;;;;;5052333;28;20255;-47